Terminal Aerodrome Forecast
Issued by NWS Charleston, WV

Current Version | Previous Version | Graphics & Text | Print | Product List | Glossary Off
Versions: 1 2 3 4 5 6 7 8 9 10 11 12 13 14 15 16 17 18 19 20 21 22 23 24 25 26 27 28 29

000
FTUS41 KRLX 192332
TAFEKN
TAF
KEKN 192332Z 2000/2024 25010G18KT 4SM -SHSN BKN026 BKN045 OVC060
      TEMPO 2002/2005 1SM -SHSN OVC017
     FM200500 28010G18KT 6SM -SHSN OVC022
      TEMPO 2005/2007 2SM -SN OVC014
     FM201000 27006KT P6SM BKN030
     FM201100 27006KT P6SM SCT250=

USA.gov is the U.S. government's official web portal to all federal, state and local government web resources and services.